createdAt,value
2018-06-01T00:00:18.771Z,18.50
2018-06-01T00:02:50.040Z,21.40
2018-06-01T00:05:18.759Z,19.40
2018-06-01T00:07:48.263Z,19.43
2018-06-01T00:10:16.843Z,18.20
2018-06-01T00:12:46.680Z,18.60
2018-06-01T00:15:21.727Z,19.77
2018-06-01T00:17:50.968Z,20.40
2018-06-01T00:20:21.518Z,24.73
2018-06-01T00:22:50.319Z,19.87
2018-06-01T00:25:23.775Z,22.43
2018-06-01T00:27:52.556Z,22.33
2018-06-01T00:30:21.383Z,22.70
2018-06-01T00:32:50.211Z,21.20
2018-06-01T00:38:43.191Z,24.47
2018-06-01T00:41:12.443Z,23.23
2018-06-01T00:44:02.358Z,23.73
2018-06-01T00:46:31.880Z,20.93
2018-06-01T00:49:04.491Z,20.90
2018-06-01T00:51:33.047Z,23.00
2018-06-01T00:54:19.455Z,22.30
2018-06-01T00:56:48.521Z,24.53
2018-06-01T00:59:18.183Z,24.17
2018-06-01T01:01:47.280Z,21.93
2018-06-01T01:04:15.977Z,24.90
2018-06-01T01:06:44.736Z,24.90
2018-06-01T01:09:13.611Z,23.40
2018-06-01T01:11:42.765Z,29.03
2018-06-01T01:14:16.488Z,24.43
2018-06-01T01:16:45.824Z,25.50
2018-06-01T01:19:14.923Z,25.70
2018-06-01T01:21:44.019Z,24.00
2018-06-01T01:24:16.785Z,24.57
2018-06-01T01:26:45.315Z,24.47
2018-06-01T01:29:19.914Z,25.67
2018-06-01T01:31:48.372Z,26.97
2018-06-01T01:34:20.020Z,29.27
2018-06-01T01:36:49.188Z,30.70
2018-06-01T01:39:28.607Z,28.47
2018-06-01T01:41:57.405Z,30.17
2018-06-01T01:44:32.110Z,30.23
2018-06-01T01:47:01.044Z,32.37
2018-06-01T01:49:29.912Z,27.87
2018-06-01T01:51:58.301Z,33.70
2018-06-01T01:54:26.885Z,30.63
2018-06-01T01:56:56.042Z,26.53
2018-06-01T01:59:25.070Z,29.37
2018-06-01T02:02:04.942Z,23.30
2018-06-01T02:04:34.574Z,25.57
2018-06-01T02:07:03.308Z,25.07
2018-06-01T02:09:32.594Z,25.27
2018-06-01T02:12:09.177Z,27.20
2018-06-01T02:14:37.911Z,28.07
2018-06-01T02:17:07.137Z,27.17
2018-06-01T02:19:38.393Z,28.83
2018-06-01T02:22:07.750Z,32.63
2018-06-01T02:24:45.269Z,38.67
2018-06-01T02:27:14.220Z,37.80
2018-06-01T02:29:47.335Z,42.77
2018-06-01T02:32:16.143Z,47.73
2018-06-01T02:34:49.466Z,45.47
2018-06-01T02:37:18.419Z,45.60
2018-06-01T02:39:47.420Z,46.07
2018-06-01T02:42:16.145Z,43.40
2018-06-01T02:47:32.112Z,45.27
2018-06-01T02:50:01.048Z,43.77
2018-06-01T02:52:35.359Z,50.33
2018-06-01T02:55:04.775Z,49.57
2018-06-01T02:57:35.151Z,45.13
2018-06-01T03:00:04.313Z,44.83
2018-06-01T03:02:34.069Z,46.17
2018-06-01T03:05:04.125Z,45.00
2018-06-01T03:07:33.119Z,44.07
2018-06-01T03:10:03.667Z,43.70
2018-06-01T03:12:32.886Z,47.23
2018-06-01T03:15:25.212Z,47.80
2018-06-01T03:17:54.329Z,55.10
2018-06-01T03:20:23.606Z,49.60
2018-06-01T03:22:52.342Z,48.10
2018-06-01T03:25:21.144Z,50.47
2018-06-01T03:27:49.973Z,39.80
2018-06-01T03:30:19.234Z,45.97
2018-06-01T03:32:48.364Z,46.93
2018-06-01T03:35:21.801Z,50.97
2018-06-01T03:37:51.001Z,49.70
2018-06-01T03:40:25.864Z,48.90
2018-06-01T03:42:54.850Z,53.87
2018-06-01T03:45:31.601Z,47.20
2018-06-01T03:48:00.235Z,52.53
2018-06-01T03:50:38.408Z,52.53
2018-06-01T03:53:07.406Z,53.73
2018-06-01T03:55:55.819Z,52.13
2018-06-01T03:58:24.985Z,49.83
2018-06-01T04:01:13.940Z,52.30
2018-06-01T04:03:46.868Z,48.57
2018-06-01T04:06:26.911Z,52.43
2018-06-01T04:08:56.022Z,51.43
2018-06-01T04:11:25.054Z,50.27
2018-06-01T04:13:54.182Z,45.07
2018-06-01T04:16:23.095Z,50.47
2018-06-01T04:18:51.826Z,52.67
2018-06-01T04:21:20.992Z,51.67
2018-06-01T04:23:50.268Z,52.23
2018-06-01T04:26:19.025Z,53.77
2018-06-01T04:28:47.904Z,59.57
2018-06-01T04:31:24.058Z,57.37
2018-06-01T04:33:53.295Z,56.17
2018-06-01T04:36:22.307Z,60.13
2018-06-01T04:38:51.055Z,65.43
2018-06-01T04:41:24.020Z,62.60
2018-06-01T04:43:53.413Z,63.83
2018-06-01T04:46:21.649Z,59.30
2018-06-01T04:48:50.888Z,59.53
2018-06-01T04:51:21.183Z,57.47
2018-06-01T04:53:50.987Z,59.57
2018-06-01T04:56:20.806Z,57.87
2018-06-01T04:58:49.978Z,57.13
2018-06-01T05:01:18.808Z,54.43
2018-06-01T05:03:49.054Z,50.87
2018-06-01T05:06:19.670Z,55.03
2018-06-01T05:08:55.467Z,58.13
2018-06-01T05:11:24.307Z,54.27
2018-06-01T05:13:57.658Z,58.00
2018-06-01T05:16:27.172Z,62.17
2018-06-01T05:18:56.469Z,61.97
2018-06-01T05:21:25.002Z,69.73
2018-06-01T05:23:53.811Z,69.93
2018-06-01T05:26:22.993Z,75.40
2018-06-01T05:28:51.779Z,85.63
2018-06-01T05:31:20.059Z,81.80
2018-06-01T05:33:49.753Z,81.63
2018-06-01T05:36:18.743Z,86.27
2018-06-01T05:38:48.207Z,81.87
2018-06-01T05:41:17.029Z,91.27
2018-06-01T05:43:46.383Z,100.03
2018-06-01T05:46:16.075Z,99.40
2018-06-01T05:48:45.380Z,98.17
2018-06-01T05:51:13.928Z,119.87
2018-06-01T05:53:48.668Z,123.40
2018-06-01T05:56:17.906Z,130.63
2018-06-01T05:58:47.389Z,145.35
2018-06-01T06:01:19.304Z,155.43
2018-06-01T06:03:48.971Z,145.73
2018-06-01T06:06:21.574Z,130.03
2018-06-01T06:08:50.648Z,158.03
2018-06-01T06:11:18.840Z,160.57
2018-06-01T06:13:47.587Z,156.47
2018-06-01T06:16:21.133Z,127.90
2018-06-01T06:18:50.711Z,125.50
2018-06-01T06:21:23.297Z,148.37
2018-06-01T06:23:52.090Z,133.70
2018-06-01T06:26:20.861Z,150.73
2018-06-01T06:28:49.789Z,138.83
2018-06-01T06:31:18.508Z,119.93
2018-06-01T06:33:46.882Z,112.20
2018-06-01T06:36:17.072Z,124.63
2018-06-01T06:38:45.877Z,107.73
2018-06-01T06:41:14.069Z,112.60
2018-06-01T06:43:42.392Z,125.03
2018-06-01T06:46:10.604Z,125.97
2018-06-01T06:48:39.642Z,112.37
2018-06-01T06:51:08.278Z,118.23
2018-06-01T06:53:38.578Z,136.07
2018-06-01T06:56:07.358Z,115.90
2018-06-01T06:58:35.614Z,109.17
2018-06-01T07:01:04.116Z,108.50
2018-06-01T07:03:32.846Z,91.90
2018-06-01T07:06:03.376Z,89.37
2018-06-01T07:08:32.918Z,86.53
2018-06-01T07:11:03.835Z,93.53
2018-06-01T07:13:32.853Z,92.20
2018-06-01T07:16:01.444Z,89.07
2018-06-01T07:18:39.077Z,98.73
2018-06-01T07:21:07.801Z,95.67
2018-06-01T07:23:41.854Z,91.47
2018-06-01T07:26:11.258Z,94.00
2018-06-01T07:28:40.796Z,103.90
2018-06-01T07:31:09.940Z,83.97
2018-06-01T07:33:39.272Z,86.23
2018-06-01T07:36:08.614Z,84.70
2018-06-01T07:38:38.222Z,80.37
2018-06-01T07:41:07.884Z,100.33
2018-06-01T07:43:37.272Z,95.00
2018-06-01T07:46:07.168Z,104.57
2018-06-01T07:48:46.962Z,113.47
2018-06-01T07:51:16.471Z,111.37
2018-06-01T07:53:46.877Z,100.90
2018-06-01T07:56:16.573Z,110.67
2018-06-01T07:58:45.802Z,109.60
2018-06-01T08:01:15.108Z,104.33
2018-06-01T08:03:44.543Z,122.17
2018-06-01T08:06:13.124Z,124.93
2018-06-01T08:08:42.060Z,135.17
2018-06-01T08:11:14.396Z,132.43
2018-06-01T08:13:43.658Z,99.13
2018-06-01T08:16:12.935Z,97.50
2018-06-01T08:18:42.119Z,72.67
2018-06-01T08:21:14.956Z,83.47
2018-06-01T08:23:43.913Z,56.73
2018-06-01T08:26:12.195Z,57.80
2018-06-01T08:28:40.679Z,53.93
2018-06-01T08:31:09.149Z,48.70
2018-06-01T08:33:48.597Z,48.93
2018-06-01T08:36:17.007Z,49.13
2018-06-01T08:38:53.577Z,50.60
2018-06-01T08:41:21.904Z,65.47
2018-06-01T08:43:51.481Z,79.73
2018-06-01T08:46:20.092Z,95.67
2018-06-01T08:48:48.665Z,105.43
2018-06-01T08:51:16.835Z,117.53
2018-06-01T08:53:51.311Z,112.23
2018-06-01T08:56:19.849Z,116.10
2018-06-01T08:58:49.367Z,146.43
2018-06-01T09:01:17.975Z,143.07
2018-06-01T09:03:46.933Z,147.33
2018-06-01T09:06:17.269Z,136.73
2018-06-01T09:08:46.416Z,142.33
2018-06-01T09:11:16.009Z,169.00
2018-06-01T09:13:44.551Z,112.63
2018-06-01T09:16:13.553Z,127.13
2018-06-01T09:18:42.649Z,132.13
2018-06-01T09:21:30.950Z,164.10
2018-06-01T09:24:00.236Z,149.30
2018-06-01T09:26:29.977Z,152.90
2018-06-01T09:28:58.391Z,156.87
2018-06-01T09:31:27.816Z,124.47
2018-06-01T09:33:56.613Z,181.47
2018-06-01T09:36:25.542Z,175.67
2018-06-01T09:38:54.102Z,140.70
2018-06-01T09:41:26.844Z,151.07
2018-06-01T09:43:56.072Z,157.77
2018-06-01T09:46:28.189Z,121.07
2018-06-01T09:48:56.544Z,99.77
2018-06-01T09:51:24.829Z,87.70
2018-06-01T09:53:58.677Z,71.50
2018-06-01T09:56:27.184Z,77.70
2018-06-01T09:58:59.631Z,67.00
2018-06-01T10:01:29.724Z,78.10
2018-06-01T10:04:00.779Z,71.50
2018-06-01T10:06:30.121Z,70.07
2018-06-01T10:09:00.508Z,42.73
2018-06-01T10:11:30.074Z,41.43
2018-06-01T10:14:01.434Z,38.33
2018-06-01T10:16:30.272Z,37.70
2018-06-01T10:21:54.219Z,37.97
2018-06-01T10:24:22.986Z,34.73
2018-06-01T10:27:01.666Z,36.17
2018-06-01T10:29:30.787Z,37.10
2018-06-01T10:32:00.986Z,39.17
2018-06-01T10:34:29.272Z,39.17
2018-06-01T10:36:57.350Z,34.97
2018-06-01T10:39:25.386Z,36.40
2018-06-01T10:42:00.375Z,33.63
2018-06-01T10:44:28.901Z,34.60
2018-06-01T10:46:57.121Z,25.93
2018-06-01T10:49:25.296Z,27.10
2018-06-01T10:51:55.739Z,26.23
2018-06-01T10:54:23.837Z,25.07
2018-06-01T10:56:52.698Z,25.30
2018-06-01T10:59:22.204Z,24.20
2018-06-01T11:01:50.436Z,23.63
2018-06-01T11:04:18.913Z,22.13
2018-06-01T11:06:47.307Z,26.67
2018-06-01T11:09:15.366Z,28.70
2018-06-01T11:11:52.043Z,26.10
2018-06-01T11:14:20.657Z,25.70
2018-06-01T11:16:49.364Z,25.53
2018-06-01T11:19:18.737Z,22.27
2018-06-01T11:21:47.911Z,26.23
2018-06-01T11:24:16.841Z,24.90
2018-06-01T11:26:50.582Z,23.63
2018-06-01T11:29:20.115Z,25.80
2018-06-01T11:31:50.574Z,27.33
2018-06-01T11:34:20.856Z,27.47
2018-06-01T11:36:50.853Z,25.60
2018-06-01T11:39:19.533Z,23.73
2018-06-01T11:41:48.772Z,20.53
2018-06-01T11:44:18.041Z,16.77
2018-06-01T11:46:47.292Z,13.63
2018-06-01T11:49:19.980Z,10.73
2018-06-01T11:51:48.966Z,10.43
2018-06-01T11:54:17.781Z,9.77
2018-06-01T11:56:46.480Z,10.00
2018-06-01T11:59:15.561Z,11.53
2018-06-01T12:01:52.163Z,13.23
2018-06-01T12:04:21.143Z,14.83
2018-06-01T12:06:49.994Z,19.47
2018-06-01T12:09:18.843Z,18.33
2018-06-01T12:11:58.833Z,17.73
2018-06-01T12:14:28.191Z,22.23
2018-06-01T12:16:57.271Z,26.77
2018-06-01T12:19:25.929Z,28.17
2018-06-01T12:22:05.516Z,32.17
2018-06-01T12:24:33.771Z,35.23
2018-06-01T12:27:03.226Z,37.37
2018-06-01T12:29:32.938Z,37.10
2018-06-01T12:32:01.004Z,39.00
2018-06-01T12:34:29.810Z,34.37
2018-06-01T12:36:58.388Z,40.77
2018-06-01T12:39:27.812Z,46.07
2018-06-01T12:41:56.756Z,41.57
2018-06-01T12:44:25.889Z,46.53
2018-06-01T12:46:54.674Z,46.57
2018-06-01T12:49:23.196Z,49.50
2018-06-01T12:51:51.744Z,44.70
2018-06-01T12:54:20.083Z,46.70
2018-06-01T12:56:48.381Z,48.17
2018-06-01T12:59:16.755Z,50.43
2018-06-01T13:01:47.888Z,51.50
2018-06-01T13:04:16.395Z,53.30
2018-06-01T13:06:44.661Z,50.33
2018-06-01T13:09:13.031Z,47.80
2018-06-01T13:11:41.946Z,48.63
2018-06-01T13:14:10.937Z,48.10
2018-06-01T13:16:40.035Z,47.40
2018-06-01T13:19:09.277Z,47.43
2018-06-01T13:21:41.683Z,44.07
2018-06-01T13:24:10.537Z,46.87
2018-06-01T13:26:39.295Z,45.53
2018-06-01T13:29:08.240Z,51.50
2018-06-01T13:31:37.121Z,48.23
2018-06-01T13:34:09.918Z,49.70
2018-06-01T13:36:38.059Z,54.20
2018-06-01T13:39:07.730Z,52.00
2018-06-01T13:41:36.393Z,55.37
2018-06-01T13:44:05.259Z,56.53
2018-06-01T13:46:33.611Z,57.37
2018-06-01T13:49:02.133Z,60.80
2018-06-01T13:51:30.430Z,60.40
2018-06-01T13:53:59.039Z,64.33
2018-06-01T13:56:27.541Z,62.87
2018-06-01T13:58:56.707Z,62.23
2018-06-01T14:01:25.229Z,58.50
2018-06-01T14:03:54.006Z,56.00
2018-06-01T14:06:23.132Z,55.77
2018-06-01T14:08:52.549Z,55.40
2018-06-01T14:11:22.040Z,54.30
2018-06-01T14:13:52.249Z,52.63
2018-06-01T14:16:21.888Z,60.63
2018-06-01T14:18:51.177Z,66.97
2018-06-01T14:21:19.433Z,64.07
2018-06-01T14:24:09.243Z,66.97
2018-06-01T14:26:38.963Z,70.90
2018-06-01T14:29:07.792Z,67.63
2018-06-01T14:31:36.883Z,69.40
2018-06-01T14:34:05.564Z,70.77
2018-06-01T14:36:33.996Z,70.33
2018-06-01T14:39:03.123Z,68.40
2018-06-01T14:41:31.891Z,67.50
2018-06-01T14:43:59.515Z,63.60
2018-06-01T14:46:27.736Z,66.93
2018-06-01T14:48:56.245Z,63.63
2018-06-01T14:51:25.752Z,64.07
2018-06-01T14:53:53.783Z,59.30
2018-06-01T14:56:22.098Z,65.87
2018-06-01T14:58:50.637Z,64.67
2018-06-01T15:01:19.432Z,72.63
2018-06-01T15:03:47.786Z,70.83
2018-06-01T15:06:16.538Z,69.27
2018-06-01T15:08:45.167Z,73.20
2018-06-01T15:11:13.986Z,71.47
2018-06-01T15:13:44.579Z,68.37
2018-06-01T15:16:13.394Z,78.23
2018-06-01T15:18:42.769Z,84.50
2018-06-01T15:21:11.414Z,88.70
2018-06-01T15:23:39.957Z,94.17
2018-06-01T15:26:09.122Z,96.83
2018-06-01T15:28:38.221Z,103.90
2018-06-01T15:31:11.504Z,102.50
2018-06-01T15:33:39.749Z,102.57
2018-06-01T15:36:08.912Z,93.77
2018-06-01T15:38:38.635Z,91.27
2018-06-01T15:41:08.697Z,95.40
2018-06-01T15:43:38.312Z,91.13
2018-06-01T15:46:07.915Z,95.83
2018-06-01T15:48:37.525Z,86.03
2018-06-01T15:51:07.441Z,81.03
2018-06-01T15:53:42.555Z,87.13
2018-06-01T15:56:12.238Z,87.40
2018-06-01T15:58:46.391Z,80.23
2018-06-01T16:01:16.080Z,79.63
2018-06-01T16:03:47.708Z,81.50
2018-06-01T16:06:17.386Z,88.53
2018-06-01T16:08:48.791Z,93.83
2018-06-01T16:11:18.265Z,88.83
2018-06-01T16:13:48.539Z,91.67
2018-06-01T16:16:18.499Z,82.10
2018-06-01T16:18:47.889Z,90.57
2018-06-01T16:21:17.663Z,85.67
2018-06-01T16:23:51.135Z,97.50
2018-06-01T16:26:23.514Z,91.43
2018-06-01T16:28:53.960Z,82.53
2018-06-01T16:31:24.682Z,84.73
2018-06-01T16:33:54.198Z,85.50
2018-06-01T16:36:28.630Z,84.63
2018-06-01T16:38:57.201Z,85.17
2018-06-01T16:41:27.562Z,77.13
2018-06-01T16:43:56.573Z,79.63
2018-06-01T16:46:26.277Z,80.87
2018-06-01T16:48:55.368Z,79.87
2018-06-01T16:51:24.248Z,78.73
2018-06-01T16:53:54.033Z,80.00
2018-06-01T16:56:24.624Z,86.80
2018-06-01T16:58:54.242Z,78.90
2018-06-01T17:01:23.844Z,82.80
2018-06-01T17:03:53.864Z,80.43
2018-06-01T17:06:27.450Z,62.43
2018-06-01T17:08:56.321Z,65.80
2018-06-01T17:11:28.503Z,66.93
2018-06-01T17:13:57.467Z,65.80
2018-06-01T17:16:25.096Z,66.83
2018-06-01T17:18:55.294Z,62.33
2018-06-01T17:23:59.704Z,64.30
2018-06-01T17:26:28.521Z,53.07
2018-06-01T17:28:58.113Z,55.67
2018-06-01T17:31:26.639Z,56.33
2018-06-01T17:33:55.825Z,51.40
2018-06-01T17:36:25.257Z,48.43
2018-06-01T17:38:54.913Z,49.90
2018-06-01T17:41:24.122Z,45.00
2018-06-01T17:43:57.046Z,42.17
2018-06-01T17:46:25.582Z,44.20
2018-06-01T17:48:59.787Z,42.37
2018-06-01T17:51:31.656Z,46.37
2018-06-01T17:54:01.185Z,41.30
2018-06-01T17:56:30.812Z,41.33
2018-06-01T17:59:00.641Z,40.60
2018-06-01T18:01:30.128Z,43.90
2018-06-01T18:03:59.833Z,38.27
2018-06-01T18:06:28.856Z,40.90
2018-06-01T18:08:58.799Z,37.57
2018-06-01T18:11:26.460Z,37.13
2018-06-01T18:13:56.542Z,34.77
2018-06-01T18:16:27.789Z,33.23
2018-06-01T18:18:55.735Z,29.83
2018-06-01T18:21:28.139Z,36.43
2018-06-01T18:23:57.571Z,32.17
2018-06-01T18:26:27.036Z,29.23
2018-06-01T18:28:57.766Z,34.73
2018-06-01T18:31:31.505Z,29.87
2018-06-01T18:34:01.099Z,37.83
2018-06-01T18:36:33.471Z,32.23
2018-06-01T18:39:03.049Z,33.63
2018-06-01T18:41:32.423Z,35.90
2018-06-01T18:46:41.751Z,32.07
2018-06-01T18:49:11.811Z,33.60
2018-06-01T18:51:46.159Z,33.00
2018-06-01T18:54:18.626Z,35.07
2018-06-01T18:56:52.273Z,39.13
2018-06-01T18:59:22.705Z,39.43
2018-06-01T19:01:52.988Z,38.77
2018-06-01T19:04:23.177Z,40.37
2018-06-01T19:06:52.556Z,41.03
2018-06-01T19:09:24.600Z,36.60
2018-06-01T19:11:53.063Z,41.97
2018-06-01T19:14:23.942Z,39.93
2018-06-01T19:16:53.320Z,39.97
2018-06-01T19:19:22.604Z,42.07
2018-06-01T19:21:52.937Z,39.57
2018-06-01T19:26:57.551Z,43.50
2018-06-01T19:29:28.853Z,42.97
2018-06-01T19:31:58.766Z,43.67
2018-06-01T19:34:28.198Z,44.67
2018-06-01T19:36:57.818Z,39.37
2018-06-01T19:39:28.017Z,42.17
2018-06-01T19:41:57.412Z,40.87
2018-06-01T19:44:28.035Z,41.17
2018-06-01T19:46:58.025Z,40.27
2018-06-01T19:49:28.181Z,40.17
2018-06-01T19:51:57.883Z,42.73
2018-06-01T19:54:28.361Z,42.83
2018-06-01T19:56:58.762Z,45.20
2018-06-01T19:59:29.165Z,44.83
2018-06-01T20:02:02.326Z,41.87
2018-06-01T20:04:32.440Z,44.47
2018-06-01T20:09:38.004Z,46.00
2018-06-01T20:12:15.511Z,47.30
2018-06-01T20:14:44.841Z,48.67
2018-06-01T20:17:17.802Z,52.03
2018-06-01T20:19:47.537Z,46.23
2018-06-01T20:22:17.233Z,49.63
2018-06-01T20:24:49.486Z,47.57
2018-06-01T20:27:24.035Z,45.13
2018-06-01T20:29:54.422Z,48.00
2018-06-01T20:32:24.374Z,48.73
2018-06-01T20:34:56.170Z,44.70
2018-06-01T20:37:29.690Z,45.70
2018-06-01T20:40:04.521Z,43.13
2018-06-01T20:42:34.475Z,43.97
2018-06-01T20:45:04.077Z,48.00
2018-06-01T20:47:34.329Z,50.83
2018-06-01T20:50:03.676Z,49.37
2018-06-01T20:55:11.581Z,52.57
2018-06-01T20:57:45.118Z,50.23
2018-06-01T21:00:14.529Z,49.30
2018-06-01T21:02:51.941Z,53.43
2018-06-01T21:05:21.580Z,51.70
2018-06-01T21:07:51.985Z,53.37
2018-06-01T21:10:22.257Z,53.93
2018-06-01T21:12:52.255Z,54.70
2018-06-01T21:15:24.685Z,50.50
2018-06-01T21:17:54.395Z,58.13
2018-06-01T21:20:25.326Z,50.57
2018-06-01T21:22:54.769Z,55.43
2018-06-01T21:25:24.852Z,52.07
2018-06-01T21:27:54.600Z,51.87
2018-06-01T21:30:24.524Z,53.43
2018-06-01T21:32:54.158Z,49.17
2018-06-01T21:35:24.595Z,53.77
2018-06-01T21:37:54.010Z,48.80
2018-06-01T21:40:23.869Z,53.13
2018-06-01T21:42:54.388Z,50.73
2018-06-01T21:45:23.780Z,49.97
2018-06-01T21:47:56.087Z,55.87
2018-06-01T21:50:26.006Z,52.93
2018-06-01T21:55:36.149Z,55.87
2018-06-01T22:00:55.687Z,53.87
2018-06-01T22:03:29.320Z,64.63
2018-06-01T22:05:59.652Z,62.77
2018-06-01T22:08:29.770Z,70.53
2018-06-01T22:11:09.901Z,68.23
2018-06-01T22:13:39.408Z,65.50
2018-06-01T22:16:12.231Z,66.20
2018-06-01T22:18:47.240Z,68.40
2018-06-01T22:21:16.878Z,66.97
2018-06-01T22:23:45.960Z,68.10
2018-06-01T22:26:17.387Z,69.67
2018-06-01T22:28:46.133Z,76.90
2018-06-01T22:31:15.588Z,73.77
2018-06-01T22:33:44.215Z,67.60
2018-06-01T22:36:14.698Z,73.50
2018-06-01T22:38:44.139Z,72.17
2018-06-01T22:41:19.608Z,66.97
2018-06-01T22:43:48.610Z,60.57
2018-06-01T22:46:18.806Z,58.87
2018-06-01T22:51:23.666Z,56.40
2018-06-01T22:53:52.735Z,54.40
2018-06-01T22:56:22.590Z,49.63
2018-06-01T23:01:27.083Z,50.00
2018-06-01T23:03:56.679Z,45.20
2018-06-01T23:06:27.575Z,47.87
2018-06-01T23:08:57.228Z,50.77
2018-06-01T23:11:26.795Z,48.10
2018-06-01T23:13:56.231Z,48.63
2018-06-01T23:16:26.065Z,53.20
2018-06-01T23:18:59.358Z,52.43
2018-06-01T23:21:30.757Z,54.87
2018-06-01T23:24:00.132Z,51.83
2018-06-01T23:26:29.852Z,49.70
2018-06-01T23:29:05.090Z,49.10
2018-06-01T23:31:34.521Z,54.50
2018-06-01T23:34:04.367Z,55.07
2018-06-01T23:36:34.073Z,57.67
2018-06-01T23:39:19.892Z,54.47
2018-06-01T23:41:49.383Z,52.47
2018-06-01T23:44:22.943Z,56.03
2018-06-01T23:46:52.238Z,56.63
2018-06-01T23:49:21.837Z,54.40
2018-06-01T23:51:51.295Z,55.43
2018-06-01T23:54:22.962Z,51.53
2018-06-01T23:56:52.757Z,55.83
2018-06-01T23:59:22.432Z,53.80
